Time,TemperatureF,DewpointF,PressureIn,WindDirection,WindDirectionDegrees,WindSpeedMPH,WindSpeedGustMPH,Humidity,HourlyPrecipIn,Conditions,Clouds,dailyrainin,SolarRadiationWatts/m^2,SoftwareType,DateUTC
2013-03-27 00:00:00,22.9,18.5,30.33,NW,311,0.0,1.0,83,0.00,,---,0.00,0.00,VWS V14.00,2013-03-27 05:00:00,
2013-03-27 00:03:00,21.2,17.9,30.34,NW,311,0.0,0.0,87,0.00,,---,0.00,0.00,VWS V14.00,2013-03-27 05:03:00,
2013-03-27 00:08:00,20.8,17.5,30.34,NW,311,0.0,0.0,87,0.00,,---,0.00,0.00,VWS V14.00,2013-03-27 05:08:00,
2013-03-27 00:13:00,20.5,17.5,30.34,NW,311,0.0,0.0,88,0.00,,---,0.00,0.00,VWS V14.00,2013-03-27 05:13:00,
2013-03-27 00:18:00,20.2,17.2,30.34,NW,311,0.0,0.0,88,0.00,,---,0.00,0.00,VWS V14.00,2013-03-27 05:18:00,
2013-03-27 00:23:00,20.3,17.6,30.35,NW,311,0.0,0.0,89,0.00,,---,0.00,0.00,VWS V14.00,2013-03-27 05:23:00,
2013-03-27 00:28:00,20.1,17.1,30.35,NW,311,0.0,0.0,88,0.00,,---,0.00,0.00,VWS V14.00,2013-03-27 05:28:00,
2013-03-27 00:30:00,21.3,17.5,30.34,NW,311,0.0,0.0,85,0.00,,---,0.00,0.00,VWS V14.00,2013-03-27 05:30:00,
2013-03-27 00:33:00,19.7,16.7,30.35,NW,311,0.0,0.0,88,0.00,,---,0.00,0.00,VWS V14.00,2013-03-27 05:33:00,
2013-03-27 00:38:00,19.6,16.6,30.35,NW,311,0.0,0.0,88,0.00,,---,0.00,0.00,VWS V14.00,2013-03-27 05:38:00,
2013-03-27 00:43:00,19.3,16.3,30.35,NW,311,0.0,0.0,88,0.00,,---,0.00,0.00,VWS V14.00,2013-03-27 05:43:00,
2013-03-27 00:48:00,19.0,16.0,30.35,NW,311,0.0,0.0,88,0.00,,---,0.00,0.00,VWS V14.00,2013-03-27 05:48:00,
2013-03-27 00:54:00,18.8,15.8,30.35,NW,311,0.0,0.0,88,0.00,,---,0.00,0.00,VWS V14.00,2013-03-27 05:54:00,
2013-03-27 00:59:00,18.6,15.9,30.35,NW,311,0.0,0.0,89,0.00,,---,0.00,0.00,VWS V14.00,2013-03-27 05:59:00,
2013-03-27 01:00:00,21.4,18.7,30.34,NW,311,0.0,0.0,89,0.00,,---,0.00,0.00,VWS V14.00,2013-03-27 06:00:00,
2013-03-27 01:04:00,18.3,15.6,30.35,NW,311,0.0,0.0,89,0.00,,---,0.00,0.00,VWS V14.00,2013-03-27 06:04:00,
2013-03-27 01:09:00,18.1,15.4,30.35,NW,311,0.0,0.0,89,0.00,,---,0.00,0.00,VWS V14.00,2013-03-27 06:09:00,
2013-03-27 01:14:00,17.9,15.2,30.35,NW,311,0.0,0.0,89,0.00,,---,0.00,0.00,VWS V14.00,2013-03-27 06:14:00,
2013-03-27 01:19:00,17.6,14.7,30.35,NW,311,0.0,0.0,88,0.00,,---,0.00,0.00,VWS V14.00,2013-03-27 06:19:00,
2013-03-27 01:24:00,17.4,14.7,30.35,NW,311,0.0,0.0,89,0.00,,---,0.00,0.00,VWS V14.00,2013-03-27 06:24:00,
2013-03-27 01:29:00,17.1,14.4,30.35,NW,311,0.0,0.0,89,0.00,,---,0.00,0.00,VWS V14.00,2013-03-27 06:29:00,
2013-03-27 01:30:00,20.2,17.5,30.35,NW,311,0.0,0.0,89,0.00,,---,0.00,0.00,VWS V14.00,2013-03-27 06:30:00,
2013-03-27 01:34:00,16.9,14.2,30.35,NW,311,0.0,0.0,89,0.00,,---,0.00,0.00,VWS V14.00,2013-03-27 06:34:00,
2013-03-27 01:39:00,16.7,14.0,30.35,NW,311,0.0,0.0,89,0.00,,---,0.00,0.00,VWS V14.00,2013-03-27 06:39:00,
2013-03-27 01:44:00,16.6,13.9,30.35,NW,311,0.0,0.0,89,0.00,,---,0.00,0.00,VWS V14.00,2013-03-27 06:44:00,
2013-03-27 01:49:00,16.4,13.7,30.35,NW,311,0.0,0.0,89,0.00,,---,0.00,0.00,VWS V14.00,2013-03-27 06:49:00,
2013-03-27 01:54:00,16.2,13.8,30.35,NW,311,0.0,0.0,90,0.00,,---,0.00,0.00,VWS V14.00,2013-03-27 06:54:00,
2013-03-27 02:00:00,16.2,13.8,30.35,NW,311,0.0,0.0,90,0.00,,---,0.00,0.00,VWS V14.00,2013-03-27 07:00:00,
2013-03-27 02:05:00,16.1,13.7,30.35,NW,311,0.0,0.0,90,0.00,,---,0.00,0.00,VWS V14.00,2013-03-27 07:05:00,
2013-03-27 02:10:00,16.0,13.6,30.35,NW,311,0.0,0.0,90,0.00,,---,0.00,0.00,VWS V14.00,2013-03-27 07:10:00,
2013-03-27 02:15:00,15.9,13.5,30.35,NW,311,0.0,0.0,90,0.00,,---,0.00,0.00,VWS V14.00,2013-03-27 07:15:00,
2013-03-27 02:20:00,15.8,13.4,30.35,NW,311,0.0,0.0,90,0.00,,---,0.00,0.00,VWS V14.00,2013-03-27 07:20:00,
2013-03-27 02:25:00,15.7,13.3,30.35,NW,311,0.0,0.0,90,0.00,,---,0.00,0.00,VWS V14.00,2013-03-27 07:25:00,
2013-03-27 02:30:00,15.5,13.1,30.35,NW,311,0.0,0.0,90,0.00,,---,0.00,0.00,VWS V14.00,2013-03-27 07:30:00,
2013-03-27 02:35:00,15.3,12.9,30.35,NW,311,0.0,0.0,90,0.00,,---,0.00,0.00,VWS V14.00,2013-03-27 07:35:00,
2013-03-27 02:40:00,15.1,12.7,30.35,NW,311,0.0,0.0,90,0.00,,---,0.00,0.00,VWS V14.00,2013-03-27 07:40:00,
2013-03-27 02:45:00,15.0,12.6,30.35,NW,311,0.0,0.0,90,0.00,,---,0.00,0.00,VWS V14.00,2013-03-27 07:45:00,
2013-03-27 02:50:00,14.9,12.5,30.35,NW,311,0.0,0.0,90,0.00,,---,0.00,0.00,VWS V14.00,2013-03-27 07:50:00,
2013-03-27 02:55:00,14.8,12.4,30.35,NW,311,0.0,0.0,90,0.00,,---,0.00,0.00,VWS V14.00,2013-03-27 07:55:00,
2013-03-27 03:00:00,14.9,12.8,30.35,NW,311,0.0,0.0,91,0.00,,---,0.00,0.00,VWS V14.00,2013-03-27 08:00:00,
2013-03-27 03:06:00,15.0,12.9,30.35,NW,311,0.0,0.0,91,0.00,,---,0.00,0.00,VWS V14.00,2013-03-27 08:06:00,
2013-03-27 03:11:00,15.2,13.3,30.35,NW,311,0.0,0.0,92,0.00,,---,0.00,0.00,VWS V14.00,2013-03-27 08:11:00,
2013-03-27 03:16:00,15.2,13.3,30.35,NW,311,0.0,0.0,92,0.00,,---,0.00,0.00,VWS V14.00,2013-03-27 08:16:00,
2013-03-27 03:21:00,15.2,13.1,30.35,NW,311,0.0,0.0,91,0.00,,---,0.00,0.00,VWS V14.00,2013-03-27 08:21:00,
2013-03-27 03:26:00,15.2,13.1,30.35,NW,311,0.0,0.0,91,0.00,,---,0.00,0.00,VWS V14.00,2013-03-27 08:26:00,
2013-03-27 03:30:00,15.5,13.1,30.35,NW,311,0.0,0.0,90,0.00,,---,0.00,0.00,VWS V14.00,2013-03-27 08:30:00,
2013-03-27 03:31:00,15.2,13.1,30.35,NW,311,0.0,0.0,91,0.00,,---,0.00,0.00,VWS V14.00,2013-03-27 08:31:00,
2013-03-27 03:36:00,15.0,12.9,30.35,NW,311,0.0,0.0,91,0.00,,---,0.00,0.00,VWS V14.00,2013-03-27 08:36:00,
2013-03-27 03:42:00,14.9,12.8,30.35,NW,311,0.0,0.0,91,0.00,,---,0.00,0.00,VWS V14.00,2013-03-27 08:42:00,
2013-03-27 03:47:00,14.9,12.8,30.35,NW,311,0.0,0.0,91,0.00,,---,0.00,0.00,VWS V14.00,2013-03-27 08:47:00,
2013-03-27 03:52:00,14.8,12.6,30.35,NW,311,0.0,0.0,91,0.00,,---,0.00,0.00,VWS V14.00,2013-03-27 08:52:00,
2013-03-27 03:57:00,14.7,12.6,30.35,NW,311,0.0,0.0,91,0.00,,---,0.00,0.00,VWS V14.00,2013-03-27 08:57:00,
2013-03-27 04:00:00,14.8,12.4,30.35,NW,311,0.0,0.0,90,0.00,,---,0.00,0.00,VWS V14.00,2013-03-27 09:00:00,
2013-03-27 04:02:00,14.7,12.6,30.36,NW,311,0.0,0.0,91,0.00,,---,0.00,0.00,VWS V14.00,2013-03-27 09:02:00,
2013-03-27 04:07:00,14.7,12.6,30.35,NW,311,0.0,0.0,91,0.00,,---,0.00,0.00,VWS V14.00,2013-03-27 09:07:00,
2013-03-27 04:12:00,14.5,12.4,30.35,NW,311,0.0,0.0,91,0.00,,---,0.00,0.00,VWS V14.00,2013-03-27 09:12:00,
2013-03-27 04:17:00,14.3,11.9,30.35,NW,311,0.0,0.0,90,0.00,,---,0.00,0.00,VWS V14.00,2013-03-27 09:17:00,
2013-03-27 04:22:00,14.2,11.8,30.35,NW,311,0.0,0.0,90,0.00,,---,0.00,0.00,VWS V14.00,2013-03-27 09:22:00,
2013-03-27 04:27:00,14.0,11.6,30.35,NW,311,0.0,0.0,90,0.00,,---,0.00,0.00,VWS V14.00,2013-03-27 09:27:00,
2013-03-27 04:30:00,15.2,13.1,30.35,NW,311,0.0,0.0,91,0.00,,---,0.00,0.00,VWS V14.00,2013-03-27 09:30:00,
2013-03-27 04:32:00,13.8,11.4,30.35,NW,311,0.0,0.0,90,0.00,,---,0.00,0.00,VWS V14.00,2013-03-27 09:32:00,
2013-03-27 04:37:00,13.6,11.2,30.35,NW,311,0.0,0.0,90,0.00,,---,0.00,0.00,VWS V14.00,2013-03-27 09:37:00,
2013-03-27 04:43:00,13.4,11.0,30.35,NW,311,0.0,0.0,90,0.00,,---,0.00,0.00,VWS V14.00,2013-03-27 09:43:00,
2013-03-27 04:48:00,13.1,10.5,30.35,NW,311,0.0,0.0,89,0.00,,---,0.00,0.00,VWS V14.00,2013-03-27 09:48:00,
2013-03-27 04:53:00,12.9,10.3,30.35,NW,311,0.0,0.0,89,0.00,,---,0.00,0.00,VWS V14.00,2013-03-27 09:53:00,
2013-03-27 04:58:00,12.7,10.3,30.35,NW,311,0.0,0.0,90,0.00,,---,0.00,0.00,VWS V14.00,2013-03-27 09:58:00,
2013-03-27 05:00:00,14.7,12.6,30.35,NW,311,0.0,0.0,91,0.00,,---,0.00,0.00,VWS V14.00,2013-03-27 10:00:00,
2013-03-27 05:03:00,12.7,10.3,30.35,NW,311,0.0,0.0,90,0.00,,---,0.00,0.00,VWS V14.00,2013-03-27 10:03:00,
2013-03-27 05:08:00,12.6,10.2,30.35,NW,311,0.0,0.0,90,0.00,,---,0.00,0.00,VWS V14.00,2013-03-27 10:08:00,
2013-03-27 05:13:00,12.5,10.1,30.35,NW,311,0.0,0.0,90,0.00,,---,0.00,0.00,VWS V14.00,2013-03-27 10:13:00,
2013-03-27 05:18:00,12.4,10.0,30.35,NW,311,0.0,0.0,90,0.00,,---,0.00,0.00,VWS V14.00,2013-03-27 10:18:00,
2013-03-27 05:23:00,12.4,10.0,30.35,NW,311,0.0,0.0,90,0.00,,---,0.00,0.00,VWS V14.00,2013-03-27 10:23:00,
2013-03-27 05:28:00,12.5,10.4,30.36,NW,311,0.0,0.0,91,0.00,,---,0.00,0.00,VWS V14.00,2013-03-27 10:28:00,
2013-03-27 05:30:00,14.0,11.6,30.35,NW,311,0.0,0.0,90,0.00,,---,0.00,0.00,VWS V14.00,2013-03-27 10:30:00,
2013-03-27 05:33:00,12.5,10.4,30.36,NW,311,0.0,0.0,91,0.00,,---,0.00,0.00,VWS V14.00,2013-03-27 10:33:00,
2013-03-27 05:38:00,12.4,10.3,30.36,NW,311,0.0,0.0,91,0.00,,---,0.00,0.00,VWS V14.00,2013-03-27 10:38:00,
2013-03-27 05:43:00,12.3,9.9,30.36,NW,311,0.0,0.0,90,0.00,,---,0.00,0.00,VWS V14.00,2013-03-27 10:43:00,
2013-03-27 05:48:00,12.2,9.8,30.36,NW,311,0.0,0.0,90,0.00,,---,0.00,0.00,VWS V14.00,2013-03-27 10:48:00,
2013-03-27 05:53:00,12.0,9.6,30.36,NW,311,0.0,0.0,90,0.00,,---,0.00,0.00,VWS V14.00,2013-03-27 10:53:00,
2013-03-27 05:58:00,11.9,9.5,30.36,NW,311,0.0,0.0,90,0.00,,---,0.00,0.00,VWS V14.00,2013-03-27 10:58:00,
2013-03-27 06:00:00,12.7,10.3,30.35,NW,311,0.0,0.0,90,0.00,,---,0.00,0.00,VWS V14.00,2013-03-27 11:00:00,
2013-03-27 06:04:00,11.9,9.5,30.37,NW,311,0.0,0.0,90,0.00,,---,0.00,0.00,VWS V14.00,2013-03-27 11:04:00,
2013-03-27 06:09:00,11.8,9.4,30.37,NW,311,0.0,0.0,90,0.00,,---,0.00,0.00,VWS V14.00,2013-03-27 11:09:00,
2013-03-27 06:14:00,11.8,9.7,30.36,NW,311,0.0,0.0,91,0.00,,---,0.00,0.00,VWS V14.00,2013-03-27 11:14:00,
2013-03-27 06:19:00,12.5,10.6,30.36,NW,311,0.0,1.0,92,0.00,,---,0.00,0.00,VWS V14.00,2013-03-27 11:19:00,
2013-03-27 06:24:00,12.6,10.7,30.36,NW,311,0.0,1.0,92,0.00,,---,0.00,0.00,VWS V14.00,2013-03-27 11:24:00,
2013-03-27 06:29:00,12.7,10.8,30.36,NW,311,0.0,0.0,92,0.00,,---,0.00,0.00,VWS V14.00,2013-03-27 11:29:00,
2013-03-27 06:30:00,12.5,10.4,30.36,NW,311,0.0,0.0,91,0.00,,---,0.00,0.00,VWS V14.00,2013-03-27 11:30:00,
2013-03-27 06:34:00,12.7,10.6,30.36,NW,311,0.0,0.0,91,0.00,,---,0.00,0.00,VWS V14.00,2013-03-27 11:34:00,
2013-03-27 06:39:00,12.7,10.6,30.37,NW,311,0.0,0.0,91,0.00,,---,0.00,0.00,VWS V14.00,2013-03-27 11:39:00,
2013-03-27 06:44:00,12.8,10.7,30.36,NW,311,0.0,0.0,91,0.00,,---,0.00,0.00,VWS V14.00,2013-03-27 11:44:00,
2013-03-27 06:49:00,12.8,10.7,30.37,NW,311,0.0,0.0,91,0.00,,---,0.00,0.00,VWS V14.00,2013-03-27 11:49:00,
2013-03-27 06:54:00,13.0,11.1,30.37,NW,311,0.0,0.0,92,0.00,,---,0.00,0.00,VWS V14.00,2013-03-27 11:54:00,
2013-03-27 07:00:00,13.0,10.9,30.37,NW,311,0.0,0.0,91,0.00,,---,0.00,0.00,VWS V14.00,2013-03-27 12:00:00,
2013-03-27 07:05:00,13.0,10.9,30.37,NW,311,0.0,0.0,91,0.00,,---,0.00,5.00,VWS V14.00,2013-03-27 12:05:00,
2013-03-27 07:10:00,12.8,10.7,30.37,NW,311,0.0,0.0,91,0.00,,---,0.00,7.00,VWS V14.00,2013-03-27 12:10:00,
2013-03-27 07:15:00,12.7,10.3,30.37,NW,311,0.0,0.0,90,0.00,,---,0.00,9.00,VWS V14.00,2013-03-27 12:15:00,
2013-03-27 07:20:00,12.7,10.6,30.37,NW,311,0.0,0.0,91,0.00,,---,0.00,12.00,VWS V14.00,2013-03-27 12:20:00,
2013-03-27 07:25:00,12.7,10.6,30.37,NW,311,0.0,0.0,91,0.00,,---,0.00,14.00,VWS V14.00,2013-03-27 12:25:00,
2013-03-27 07:30:00,12.7,10.6,30.37,NW,311,0.0,0.0,91,0.00,,---,0.00,16.00,VWS V14.00,2013-03-27 12:30:00,
2013-03-27 07:35:00,12.7,10.6,30.37,NW,311,0.0,0.0,91,0.00,,---,0.00,19.00,VWS V14.00,2013-03-27 12:35:00,
2013-03-27 07:40:00,12.7,10.6,30.37,NW,311,0.0,0.0,91,0.00,,---,0.00,23.00,VWS V14.00,2013-03-27 12:40:00,
2013-03-27 07:45:00,12.8,10.7,30.37,NW,311,0.0,0.0,91,0.00,,---,0.00,28.00,VWS V14.00,2013-03-27 12:45:00,
2013-03-27 07:50:00,12.9,10.8,30.38,NW,311,0.0,0.0,91,0.00,,---,0.00,28.00,VWS V14.00,2013-03-27 12:50:00,
2013-03-27 07:55:00,13.2,11.3,30.37,NW,311,0.0,0.0,92,0.00,,---,0.00,30.00,VWS V14.00,2013-03-27 12:55:00,
2013-03-27 08:00:00,13.5,11.6,30.37,NW,311,0.0,0.0,92,0.00,,---,0.00,30.00,VWS V14.00,2013-03-27 13:00:00,
2013-03-27 08:05:00,13.8,11.9,30.38,NW,311,0.0,0.0,92,0.00,,---,0.00,30.00,VWS V14.00,2013-03-27 13:05:00,
2013-03-27 08:10:00,14.5,12.9,30.38,NW,311,0.0,0.0,93,0.00,,---,0.00,33.00,VWS V14.00,2013-03-27 13:10:00,
2013-03-27 08:15:00,15.2,13.8,30.38,NW,311,0.0,0.0,94,0.00,,---,0.00,35.00,VWS V14.00,2013-03-27 13:15:00,
2013-03-27 08:20:00,16.0,14.6,30.38,NW,311,0.0,0.0,94,0.00,,---,0.00,37.00,VWS V14.00,2013-03-27 13:20:00,
2013-03-27 08:26:00,16.7,15.3,30.38,NW,311,0.0,0.0,94,0.00,,---,0.00,39.00,VWS V14.00,2013-03-27 13:26:00,
2013-03-27 08:30:00,17.0,15.6,30.38,NW,311,0.0,0.0,94,0.00,,---,0.00,39.00,VWS V14.00,2013-03-27 13:30:00,
2013-03-27 08:31:00,17.5,16.1,30.38,NW,311,0.0,0.0,94,0.00,,---,0.00,40.00,VWS V14.00,2013-03-27 13:31:00,
2013-03-27 08:36:00,18.1,16.7,30.38,NW,311,0.0,0.0,94,0.00,,---,0.00,42.00,VWS V14.00,2013-03-27 13:36:00,
2013-03-27 08:42:00,18.8,17.4,30.38,NW,311,0.0,0.0,94,0.00,,---,0.00,51.00,VWS V14.00,2013-03-27 13:42:00,
2013-03-27 08:47:00,19.4,18.0,30.38,NW,311,0.0,0.0,94,0.00,,---,0.00,58.00,VWS V14.00,2013-03-27 13:47:00,
2013-03-27 08:52:00,20.0,18.5,30.38,NW,311,0.0,0.0,94,0.00,,---,0.00,65.00,VWS V14.00,2013-03-27 13:52:00,
2013-03-27 08:57:00,20.6,19.1,30.38,NW,311,0.0,0.0,94,0.00,,---,0.00,67.00,VWS V14.00,2013-03-27 13:57:00,
2013-03-27 09:00:00,20.6,19.1,30.38,NW,311,0.0,0.0,94,0.00,,---,0.00,67.00,VWS V14.00,2013-03-27 14:00:00,
2013-03-27 09:02:00,21.3,19.9,30.38,NW,311,0.0,0.0,94,0.00,,---,0.00,54.00,VWS V14.00,2013-03-27 14:02:00,
2013-03-27 09:08:00,21.9,20.4,30.38,NW,311,0.0,0.0,94,0.00,,---,0.00,137.00,VWS V14.00,2013-03-27 14:08:00,
2013-03-27 09:13:00,22.6,21.1,30.38,NW,311,0.0,1.0,94,0.00,,---,0.00,95.00,VWS V14.00,2013-03-27 14:13:00,
2013-03-27 09:18:00,23.3,21.8,30.38,NW,311,0.0,1.0,94,0.00,,---,0.00,104.00,VWS V14.00,2013-03-27 14:18:00,
2013-03-27 09:23:00,23.9,22.2,30.38,NW,311,1.0,1.0,93,0.00,,---,0.00,153.00,VWS V14.00,2013-03-27 14:23:00,
2013-03-27 09:28:00,24.6,22.4,30.38,WNW,296,0.0,0.0,91,0.00,,---,0.00,204.00,VWS V14.00,2013-03-27 14:28:00,
2013-03-27 09:30:00,17.0,15.6,30.38,NW,311,0.0,0.0,94,0.00,,---,0.00,39.00,VWS V14.00,2013-03-27 14:30:00,
2013-03-27 09:33:00,25.2,22.7,30.38,WNW,294,1.0,1.0,90,0.00,,---,0.00,334.00,VWS V14.00,2013-03-27 14:33:00,
2013-03-27 09:38:00,25.8,22.7,30.39,West,277,0.0,2.0,88,0.00,,---,0.00,323.00,VWS V14.00,2013-03-27 14:38:00,
2013-03-27 09:43:00,26.5,22.9,30.38,West,277,0.0,2.0,86,0.00,,---,0.00,322.00,VWS V14.00,2013-03-27 14:43:00,
2013-03-27 09:48:00,27.2,23.0,30.39,West,267,0.0,2.0,84,0.00,,---,0.00,348.00,VWS V14.00,2013-03-27 14:48:00,
2013-03-27 09:53:00,28.0,23.2,30.38,West,267,0.0,2.0,82,0.00,,---,0.00,355.00,VWS V14.00,2013-03-27 14:53:00,
2013-03-27 09:58:00,28.6,22.9,30.38,SW,236,0.0,1.0,79,0.00,,---,0.00,376.00,VWS V14.00,2013-03-27 14:58:00,
2013-03-27 10:00:00,20.6,19.1,30.38,NW,311,0.0,0.0,94,0.00,,---,0.00,67.00,VWS V14.00,2013-03-27 15:00:00,
2013-03-27 10:03:00,29.3,23.0,30.39,SW,214,0.0,3.0,77,0.00,,---,0.00,327.00,VWS V14.00,2013-03-27 15:03:00,
2013-03-27 10:08:00,29.9,23.0,30.39,SSW,209,2.0,3.0,75,0.00,,---,0.00,251.00,VWS V14.00,2013-03-27 15:08:00,
2013-03-27 10:13:00,30.4,23.1,30.39,SSW,196,0.0,3.0,74,0.00,,---,0.00,195.00,VWS V14.00,2013-03-27 15:13:00,
2013-03-27 10:18:00,31.0,23.0,30.39,SSW,195,0.0,3.0,72,0.00,,---,0.00,109.00,VWS V14.00,2013-03-27 15:18:00,
2013-03-27 10:24:00,31.7,23.4,30.39,SE,124,0.0,3.0,71,0.00,,---,0.00,193.00,VWS V14.00,2013-03-27 15:24:00,
2013-03-27 10:29:00,32.3,23.3,30.39,SE,125,0.0,2.0,69,0.00,,---,0.00,276.00,VWS V14.00,2013-03-27 15:29:00,
2013-03-27 10:30:00,32.1,23.1,30.39,ESE,123,0.0,3.0,69,0.00,,---,0.00,206.00,VWS V14.00,2013-03-27 15:30:00,
2013-03-27 10:34:00,32.9,23.2,30.39,SE,125,0.0,2.0,67,0.00,,---,0.00,316.00,VWS V14.00,2013-03-27 15:34:00,
2013-03-27 10:39:00,33.5,21.9,30.39,SE,124,0.0,2.0,62,0.00,,---,0.00,471.00,VWS V14.00,2013-03-27 15:39:00,
2013-03-27 10:44:00,34.3,21.9,30.39,SE,124,0.0,2.0,60,0.00,,---,0.00,601.00,VWS V14.00,2013-03-27 15:44:00,
2013-03-27 10:49:00,34.8,20.3,30.39,SE,125,0.0,2.0,55,0.00,,---,0.00,657.00,VWS V14.00,2013-03-27 15:49:00,
2013-03-27 10:54:00,35.3,19.5,30.39,SE,126,1.0,2.0,52,0.00,,---,0.00,668.00,VWS V14.00,2013-03-27 15:54:00,
2013-03-27 10:59:00,36.0,20.5,30.39,SE,126,0.0,1.0,53,0.00,,---,0.00,677.00,VWS V14.00,2013-03-27 15:59:00,
2013-03-27 11:00:00,28.5,22.8,30.38,SW,236,1.0,2.0,79,0.00,,---,0.00,388.00,VWS V14.00,2013-03-27 16:00:00,
2013-03-27 11:04:00,36.2,19.4,30.39,East,92,0.0,2.0,50,0.00,,---,0.00,694.00,VWS V14.00,2013-03-27 16:04:00,
2013-03-27 11:09:00,36.2,19.4,30.39,East,92,0.0,2.0,50,0.00,,---,0.00,694.00,VWS V14.00,2013-03-27 16:09:00,
2013-03-27 11:14:00,36.6,19.7,30.39,East,92,0.0,2.0,50,0.00,,---,0.00,680.00,VWS V14.00,2013-03-27 16:14:00,
2013-03-27 11:20:00,36.8,20.4,30.39,NNW,331,2.0,2.0,51,0.00,,---,0.00,608.00,VWS V14.00,2013-03-27 16:20:00,
2013-03-27 11:25:00,36.9,20.5,30.39,WNW,302,0.0,3.0,51,0.00,,---,0.00,710.00,VWS V14.00,2013-03-27 16:25:00,
2013-03-27 11:30:00,37.4,20.5,30.39,WNW,302,0.0,0.0,50,0.00,,---,0.00,744.00,VWS V14.00,2013-03-27 16:30:00,
2013-03-27 11:35:00,38.2,20.7,30.39,WNW,302,0.0,2.0,49,0.00,,---,0.00,719.00,VWS V14.00,2013-03-27 16:35:00,
2013-03-27 11:40:00,38.6,20.6,30.39,WNW,302,1.0,2.0,48,0.00,,---,0.00,693.00,VWS V14.00,2013-03-27 16:40:00,
2013-03-27 11:45:00,38.5,20.0,30.39,WNW,302,2.0,2.0,47,0.00,,---,0.00,642.00,VWS V14.00,2013-03-27 16:45:00,
2013-03-27 11:50:00,38.3,19.9,30.39,WNW,302,0.0,2.0,47,0.00,,---,0.00,777.00,VWS V14.00,2013-03-27 16:50:00,
2013-03-27 11:55:00,38.6,20.6,30.39,WNW,302,0.0,2.0,48,0.00,,---,0.00,780.00,VWS V14.00,2013-03-27 16:55:00,
2013-03-27 12:00:00,39.2,20.7,30.39,WNW,290,0.0,3.0,47,0.00,,---,0.00,800.00,VWS V14.00,2013-03-27 17:00:00,
2013-03-27 12:05:00,39.7,21.1,30.38,SSE,166,1.0,3.0,47,0.00,,---,0.00,805.00,VWS V14.00,2013-03-27 17:05:00,
2013-03-27 12:10:00,39.7,19.0,30.39,South,178,0.0,4.0,43,0.00,,---,0.00,819.00,VWS V14.00,2013-03-27 17:10:00,
2013-03-27 12:15:00,39.7,19.0,30.39,SE,132,0.0,4.0,43,0.00,,---,0.00,821.00,VWS V14.00,2013-03-27 17:15:00,
2013-03-27 12:20:00,39.7,20.1,30.38,SSE,157,0.0,4.0,45,0.00,,---,0.00,817.00,VWS V14.00,2013-03-27 17:20:00,
2013-03-27 12:25:00,39.8,19.1,30.38,SSE,153,0.0,4.0,43,0.00,,---,0.00,833.00,VWS V14.00,2013-03-27 17:25:00,
2013-03-27 12:30:00,40.3,21.7,30.38,ENE,75,1.0,3.0,47,0.00,,---,0.00,837.00,VWS V14.00,2013-03-27 17:30:00,
2013-03-27 12:36:00,40.9,20.1,30.38,SSW,209,0.0,3.0,43,0.00,,---,0.00,846.00,VWS V14.00,2013-03-27 17:36:00,
2013-03-27 12:41:00,41.2,19.9,30.38,South,178,0.0,3.0,42,0.00,,---,0.00,851.00,VWS V14.00,2013-03-27 17:41:00,
2013-03-27 12:46:00,41.7,20.3,30.38,ESE,112,1.0,4.0,42,0.00,,---,0.00,851.00,VWS V14.00,2013-03-27 17:46:00,
2013-03-27 12:51:00,41.6,20.2,30.38,South,180,2.0,6.0,42,0.00,,---,0.00,856.00,VWS V14.00,2013-03-27 17:51:00,
2013-03-27 12:57:00,41.4,20.6,30.38,South,175,0.0,6.0,43,0.00,,---,0.00,860.00,VWS V14.00,2013-03-27 17:57:00,
2013-03-27 13:00:00,38.9,19.9,30.39,SSW,198,2.0,2.0,46,0.00,,---,0.00,752.00,VWS V14.00,2013-03-27 18:00:00,
2013-03-27 13:02:00,41.6,19.7,30.38,SSW,200,0.0,4.0,41,0.00,,---,0.00,858.00,VWS V14.00,2013-03-27 18:02:00,
2013-03-27 13:07:00,41.8,21.0,30.38,SSE,149,0.0,4.0,43,0.00,,---,0.00,840.00,VWS V14.00,2013-03-27 18:07:00,
2013-03-27 13:12:00,41.9,20.5,30.38,SSE,150,0.0,4.0,42,0.00,,---,0.00,838.00,VWS V14.00,2013-03-27 18:12:00,
2013-03-27 13:17:00,41.9,19.9,30.38,SSW,194,2.0,4.0,41,0.00,,---,0.00,849.00,VWS V14.00,2013-03-27 18:17:00,
2013-03-27 13:22:00,41.9,20.5,30.38,SE,126,0.0,4.0,42,0.00,,---,0.00,854.00,VWS V14.00,2013-03-27 18:22:00,
2013-03-27 13:27:00,42.2,21.9,30.38,SSE,166,1.0,7.0,44,0.00,,---,0.00,879.00,VWS V14.00,2013-03-27 18:27:00,
2013-03-27 13:30:00,40.0,20.9,30.38,SE,146,1.0,4.0,46,0.00,,---,0.00,837.00,VWS V14.00,2013-03-27 18:30:00,
2013-03-27 13:32:00,42.7,21.2,30.38,SSE,166,0.0,1.0,42,0.00,,---,0.00,884.00,VWS V14.00,2013-03-27 18:32:00,
2013-03-27 13:37:00,43.1,21.0,30.38,SSE,162,0.0,2.0,41,0.00,,---,0.00,846.00,VWS V14.00,2013-03-27 18:37:00,
2013-03-27 13:42:00,43.2,21.1,30.38,SSE,150,1.0,2.0,41,0.00,,---,0.00,867.00,VWS V14.00,2013-03-27 18:42:00,
2013-03-27 13:47:00,43.1,20.4,30.38,SSW,213,2.0,5.0,40,0.00,,---,0.00,844.00,VWS V14.00,2013-03-27 18:47:00,
2013-03-27 13:52:00,42.9,20.8,30.38,ENE,71,0.0,5.0,41,0.00,,---,0.00,803.00,VWS V14.00,2013-03-27 18:52:00,
2013-03-27 13:57:00,42.9,21.4,30.38,SSE,147,1.0,5.0,42,0.00,,---,0.00,793.00,VWS V14.00,2013-03-27 18:57:00,
2013-03-27 14:00:00,41.5,20.1,30.38,South,175,0.0,6.0,42,0.00,,---,0.00,861.00,VWS V14.00,2013-03-27 19:00:00,
2013-03-27 14:02:00,43.0,20.4,30.37,SSE,157,0.0,2.0,40,0.00,,---,0.00,837.00,VWS V14.00,2013-03-27 19:02:00,
2013-03-27 14:08:00,43.2,20.5,30.37,SSE,165,0.0,3.0,40,0.00,,---,0.00,837.00,VWS V14.00,2013-03-27 19:08:00,
2013-03-27 14:13:00,42.8,19.6,30.37,SSW,196,2.0,6.0,39,0.00,,---,0.00,830.00,VWS V14.00,2013-03-27 19:13:00,
2013-03-27 14:18:00,42.5,19.9,30.37,South,181,0.0,6.0,40,0.00,,---,0.00,819.00,VWS V14.00,2013-03-27 19:18:00,
2013-03-27 14:23:00,42.5,21.0,30.37,South,170,0.0,6.0,42,0.00,,---,0.00,817.00,VWS V14.00,2013-03-27 19:23:00,
2013-03-27 14:28:00,42.6,22.2,30.37,SSE,147,0.0,0.0,44,0.00,,---,0.00,810.00,VWS V14.00,2013-03-27 19:28:00,
2013-03-27 14:30:00,42.6,22.2,30.37,SSE,147,0.0,6.0,44,0.00,,---,0.00,807.00,VWS V14.00,2013-03-27 19:30:00,
2013-03-27 14:33:00,42.7,20.1,30.37,South,173,1.0,4.0,40,0.00,,---,0.00,803.00,VWS V14.00,2013-03-27 19:33:00,
2013-03-27 14:38:00,42.7,20.1,30.36,South,172,1.0,4.0,40,0.00,,---,0.00,789.00,VWS V14.00,2013-03-27 19:38:00,
2013-03-27 14:43:00,42.5,20.5,30.36,SSE,156,1.0,4.0,41,0.00,,---,0.00,788.00,VWS V14.00,2013-03-27 19:43:00,
2013-03-27 14:48:00,42.8,21.9,30.36,SSE,164,0.0,4.0,43,0.00,,---,0.00,780.00,VWS V14.00,2013-03-27 19:48:00,
2013-03-27 14:53:00,43.3,21.2,30.36,SSE,163,0.0,4.0,41,0.00,,---,0.00,772.00,VWS V14.00,2013-03-27 19:53:00,
2013-03-27 14:58:00,43.5,21.4,30.36,SW,225,0.0,1.0,41,0.00,,---,0.00,763.00,VWS V14.00,2013-03-27 19:58:00,
2013-03-27 15:00:00,42.9,21.4,30.38,SSE,147,1.0,5.0,42,0.00,,---,0.00,793.00,VWS V14.00,2013-03-27 20:00:00,
2013-03-27 15:03:00,43.1,21.0,30.36,SSW,196,1.0,5.0,41,0.00,,---,0.00,752.00,VWS V14.00,2013-03-27 20:03:00,
2013-03-27 15:09:00,42.5,21.6,30.36,SSE,155,0.0,5.0,43,0.00,,---,0.00,737.00,VWS V14.00,2013-03-27 20:09:00,
2013-03-27 15:14:00,42.5,20.5,30.36,SSW,194,2.0,5.0,41,0.00,,---,0.00,671.00,VWS V14.00,2013-03-27 20:14:00,
2013-03-27 15:19:00,42.7,20.1,30.36,SSW,194,0.0,5.0,40,0.00,,---,0.00,417.00,VWS V14.00,2013-03-27 20:19:00,
2013-03-27 15:24:00,42.5,19.3,30.36,NW,318,0.0,5.0,39,0.00,,---,0.00,591.00,VWS V14.00,2013-03-27 20:24:00,
2013-03-27 15:29:00,41.9,20.5,30.36,East,94,0.0,4.0,42,0.00,,---,0.00,603.00,VWS V14.00,2013-03-27 20:29:00,
2013-03-27 15:30:00,42.6,22.2,30.37,SSE,147,0.0,6.0,44,0.00,,---,0.00,807.00,VWS V14.00,2013-03-27 20:30:00,
2013-03-27 15:34:00,41.9,21.0,30.36,East,96,1.0,4.0,43,0.00,,---,0.00,424.00,VWS V14.00,2013-03-27 20:34:00,
2013-03-27 15:39:00,41.8,19.8,30.36,ESE,117,0.0,4.0,41,0.00,,---,0.00,318.00,VWS V14.00,2013-03-27 20:39:00,
2013-03-27 15:44:00,40.9,19.6,30.36,NE,36,0.0,4.0,42,0.00,,---,0.00,345.00,VWS V14.00,2013-03-27 20:44:00,
2013-03-27 15:49:00,40.6,19.9,30.35,NNE,19,0.0,4.0,43,0.00,,---,0.00,327.00,VWS V14.00,2013-03-27 20:49:00,
2013-03-27 15:54:00,40.9,20.7,30.35,NE,38,1.0,4.0,44,0.00,,---,0.00,251.00,VWS V14.00,2013-03-27 20:54:00,
2013-03-27 15:59:00,41.1,20.3,30.35,South,170,0.0,4.0,43,0.00,,---,0.00,315.00,VWS V14.00,2013-03-27 20:59:00,
2013-03-27 16:00:00,43.5,20.8,30.36,SW,225,0.0,4.0,40,0.00,,---,0.00,766.00,VWS V14.00,2013-03-27 21:00:00,
2013-03-27 16:05:00,41.1,20.9,30.35,SSE,153,0.0,4.0,44,0.00,,---,0.00,339.00,VWS V14.00,2013-03-27 21:05:00,
2013-03-27 16:10:00,41.1,20.9,30.35,SW,219,2.0,4.0,44,0.00,,---,0.00,357.00,VWS V14.00,2013-03-27 21:10:00,
2013-03-27 16:15:00,41.0,21.3,30.35,South,187,2.0,5.0,45,0.00,,---,0.00,239.00,VWS V14.00,2013-03-27 21:15:00,
2013-03-27 16:20:00,40.7,20.5,30.35,ESE,109,0.0,5.0,44,0.00,,---,0.00,162.00,VWS V14.00,2013-03-27 21:20:00,
2013-03-27 16:25:00,40.6,20.4,30.34,SW,234,0.0,6.0,44,0.00,,---,0.00,121.00,VWS V14.00,2013-03-27 21:25:00,
2013-03-27 16:30:00,40.4,20.2,30.35,SSE,161,0.0,2.0,44,0.00,,---,0.00,202.00,VWS V14.00,2013-03-27 21:30:00,
2013-03-27 16:35:00,40.2,20.0,30.35,SSE,162,0.0,2.0,44,0.00,,---,0.00,171.00,VWS V14.00,2013-03-27 21:35:00,
2013-03-27 16:40:00,40.1,20.5,30.34,SSE,153,2.0,2.0,45,0.00,,---,0.00,144.00,VWS V14.00,2013-03-27 21:40:00,
2013-03-27 16:45:00,39.9,21.3,30.34,SSE,155,0.0,3.0,47,0.00,,---,0.00,169.00,VWS V14.00,2013-03-27 21:45:00,
2013-03-27 16:50:00,40.0,20.9,30.34,SE,128,0.0,4.0,46,0.00,,---,0.00,125.00,VWS V14.00,2013-03-27 21:50:00,
2013-03-27 16:55:00,40.1,21.0,30.34,SW,221,0.0,4.0,46,0.00,,---,0.00,121.00,VWS V14.00,2013-03-27 21:55:00,
2013-03-27 17:00:00,40.2,21.6,30.34,SW,221,0.0,2.0,47,0.00,,---,0.00,107.00,VWS V14.00,2013-03-27 22:00:00,
2013-03-27 17:05:00,40.0,19.9,30.34,SSE,162,0.0,2.0,44,0.00,,---,0.00,139.00,VWS V14.00,2013-03-27 22:05:00,
2013-03-27 17:10:00,40.0,20.9,30.34,South,171,2.0,5.0,46,0.00,,---,0.00,139.00,VWS V14.00,2013-03-27 22:10:00,
2013-03-27 17:15:00,39.9,20.8,30.34,South,182,0.0,5.0,46,0.00,,---,0.00,107.00,VWS V14.00,2013-03-27 22:15:00,
2013-03-27 17:20:00,39.8,20.7,30.35,ESE,117,0.0,5.0,46,0.00,,---,0.00,98.00,VWS V14.00,2013-03-27 22:20:00,
2013-03-27 17:26:00,39.7,20.1,30.34,SSE,159,0.0,5.0,45,0.00,,---,0.00,120.00,VWS V14.00,2013-03-27 22:26:00,
2013-03-27 17:30:00,40.5,20.9,30.35,SE,144,0.0,6.0,45,0.00,,---,0.00,155.00,VWS V14.00,2013-03-27 22:30:00,
2013-03-27 17:31:00,39.7,20.1,30.35,SSE,159,0.0,1.0,45,0.00,,---,0.00,149.00,VWS V14.00,2013-03-27 22:31:00,
2013-03-27 17:36:00,39.6,20.5,30.35,SSE,159,0.0,2.0,46,0.00,,---,0.00,88.00,VWS V14.00,2013-03-27 22:36:00,
2013-03-27 17:41:00,39.4,19.8,30.35,SSE,159,0.0,2.0,45,0.00,,---,0.00,142.00,VWS V14.00,2013-03-27 22:41:00,
2013-03-27 17:46:00,39.3,19.8,30.35,SSE,159,0.0,2.0,45,0.00,,---,0.00,116.00,VWS V14.00,2013-03-27 22:46:00,
2013-03-27 17:51:00,39.3,21.3,30.34,SSE,159,0.0,2.0,48,0.00,,---,0.00,111.00,VWS V14.00,2013-03-27 22:51:00,
2013-03-27 17:56:00,39.2,20.2,30.35,SSE,159,0.0,2.0,46,0.00,,---,0.00,97.00,VWS V14.00,2013-03-27 22:56:00,
2013-03-27 18:00:00,40.1,21.0,30.34,SW,221,0.0,4.0,46,0.00,,---,0.00,135.00,VWS V14.00,2013-03-27 23:00:00,
2013-03-27 18:01:00,39.2,20.2,30.35,SSE,159,0.0,1.0,46,0.00,,---,0.00,93.00,VWS V14.00,2013-03-27 23:01:00,
2013-03-27 18:07:00,39.0,21.5,30.35,SSE,159,0.0,1.0,49,0.00,,---,0.00,56.00,VWS V14.00,2013-03-27 23:07:00,
2013-03-27 18:12:00,38.8,20.3,30.35,SE,146,0.0,2.0,47,0.00,,---,0.00,49.00,VWS V14.00,2013-03-27 23:12:00,
2013-03-27 18:17:00,38.6,20.6,30.35,SE,146,0.0,2.0,48,0.00,,---,0.00,47.00,VWS V14.00,2013-03-27 23:17:00,
2013-03-27 18:22:00,38.5,21.0,30.35,SSE,167,0.0,3.0,49,0.00,,---,0.00,51.00,VWS V14.00,2013-03-27 23:22:00,
2013-03-27 18:27:00,38.3,22.2,30.35,SSE,167,0.0,3.0,52,0.00,,---,0.00,40.00,VWS V14.00,2013-03-27 23:27:00,
2013-03-27 18:30:00,39.7,20.1,30.35,SSE,159,1.0,5.0,45,0.00,,---,0.00,186.00,VWS V14.00,2013-03-27 23:30:00,
2013-03-27 18:32:00,38.1,20.6,30.35,SE,134,1.0,3.0,49,0.00,,---,0.00,39.00,VWS V14.00,2013-03-27 23:32:00,
2013-03-27 18:37:00,38.0,20.5,30.34,SE,138,0.0,3.0,49,0.00,,---,0.00,37.00,VWS V14.00,2013-03-27 23:37:00,
2013-03-27 18:42:00,37.8,21.3,30.34,SE,138,1.0,3.0,51,0.00,,---,0.00,33.00,VWS V14.00,2013-03-27 23:42:00,
2013-03-27 18:47:00,37.4,21.4,30.34,SE,146,0.0,3.0,52,0.00,,---,0.00,32.00,VWS V14.00,2013-03-27 23:47:00,
2013-03-27 18:52:00,37.2,21.2,30.34,SE,146,0.0,3.0,52,0.00,,---,0.00,28.00,VWS V14.00,2013-03-27 23:52:00,
2013-03-27 18:57:00,36.9,21.4,30.34,SE,146,0.0,3.0,53,0.00,,---,0.00,26.00,VWS V14.00,2013-03-27 23:57:00,
2013-03-27 19:00:00,39.2,20.7,30.35,SSE,159,0.0,2.0,47,0.00,,---,0.00,111.00,VWS V14.00,2013-03-28 00:00:00,
2013-03-27 19:02:00,36.7,21.2,30.34,SE,146,0.0,2.0,53,0.00,,---,0.00,23.00,VWS V14.00,2013-03-28 00:02:00,
2013-03-27 19:08:00,36.4,20.9,30.34,SE,146,0.0,2.0,53,0.00,,---,0.00,19.00,VWS V14.00,2013-03-28 00:08:00,
2013-03-27 19:13:00,36.2,20.7,30.34,SE,146,0.0,2.0,53,0.00,,---,0.00,18.00,VWS V14.00,2013-03-28 00:13:00,
2013-03-27 19:18:00,35.9,20.9,30.34,SE,146,0.0,2.0,54,0.00,,---,0.00,14.00,VWS V14.00,2013-03-28 00:18:00,
2013-03-27 19:23:00,35.6,21.9,30.34,SE,146,0.0,2.0,57,0.00,,---,0.00,11.00,VWS V14.00,2013-03-28 00:23:00,
2013-03-27 19:28:00,35.3,21.6,30.35,SE,146,0.0,0.0,57,0.00,,---,0.00,9.00,VWS V14.00,2013-03-28 00:28:00,
2013-03-27 19:30:00,38.3,21.8,30.35,SSE,166,0.0,3.0,51,0.00,,---,0.00,40.00,VWS V14.00,2013-03-28 00:30:00,
2013-03-27 19:33:00,35.0,21.7,30.35,SE,146,0.0,0.0,58,0.00,,---,0.00,5.00,VWS V14.00,2013-03-28 00:33:00,
2013-03-27 19:38:00,34.4,20.8,30.35,SE,146,0.0,0.0,57,0.00,,---,0.00,0.00,VWS V14.00,2013-03-28 00:38:00,
2013-03-27 19:43:00,34.2,21.4,30.34,SE,146,0.0,0.0,59,0.00,,---,0.00,0.00,VWS V14.00,2013-03-28 00:43:00,
2013-03-27 19:48:00,33.7,20.9,30.35,SE,146,0.0,0.0,59,0.00,,---,0.00,0.00,VWS V14.00,2013-03-28 00:48:00,
2013-03-27 19:53:00,33.2,21.6,30.35,SE,146,0.0,0.0,62,0.00,,---,0.00,0.00,VWS V14.00,2013-03-28 00:53:00,
2013-03-27 19:58:00,32.8,21.2,30.35,SE,146,0.0,0.0,62,0.00,,---,0.00,0.00,VWS V14.00,2013-03-28 00:58:00,
2013-03-27 20:00:00,32.9,21.3,30.35,SE,146,0.0,0.0,62,0.00,,---,0.00,0.00,VWS V14.00,2013-03-28 01:00:00,
2013-03-27 20:03:00,32.3,20.4,30.35,SE,146,0.0,0.0,61,0.00,,---,0.00,0.00,VWS V14.00,2013-03-28 01:03:00,
2013-03-27 20:08:00,31.8,21.0,30.35,SE,146,0.0,0.0,64,0.00,,---,0.00,0.00,VWS V14.00,2013-03-28 01:08:00,
2013-03-27 20:13:00,31.3,20.5,30.35,SE,146,0.0,0.0,64,0.00,,---,0.00,0.00,VWS V14.00,2013-03-28 01:13:00,
2013-03-27 20:19:00,30.8,20.1,30.35,SE,146,0.0,0.0,64,0.00,,---,0.00,0.00,VWS V14.00,2013-03-28 01:19:00,
2013-03-27 20:24:00,30.3,20.3,30.35,SE,146,0.0,0.0,66,0.00,,---,0.00,0.00,VWS V14.00,2013-03-28 01:24:00,
2013-03-27 20:29:00,29.9,20.3,30.35,SE,146,0.0,0.0,67,0.00,,---,0.00,0.00,VWS V14.00,2013-03-28 01:29:00,
2013-03-27 20:30:00,35.3,21.6,30.34,SE,146,0.0,2.0,57,0.00,,---,0.00,9.00,VWS V14.00,2013-03-28 01:30:00,
2013-03-27 20:34:00,29.4,19.8,30.35,SE,146,0.0,0.0,67,0.00,,---,0.00,0.00,VWS V14.00,2013-03-28 01:34:00,
2013-03-27 20:39:00,28.9,20.0,30.35,SE,146,0.0,0.0,69,0.00,,---,0.00,0.00,VWS V14.00,2013-03-28 01:39:00,
2013-03-27 20:44:00,28.5,20.0,30.36,SE,146,0.0,0.0,70,0.00,,---,0.00,0.00,VWS V14.00,2013-03-28 01:44:00,
2013-03-27 20:49:00,28.1,20.6,30.36,SE,146,0.0,0.0,73,0.00,,---,0.00,0.00,VWS V14.00,2013-03-28 01:49:00,
2013-03-27 20:54:00,27.9,20.7,30.36,SE,146,0.0,0.0,74,0.00,,---,0.00,0.00,VWS V14.00,2013-03-28 01:54:00,
2013-03-27 20:59:00,27.6,20.4,30.36,SE,146,0.0,0.0,74,0.00,,---,0.00,0.00,VWS V14.00,2013-03-28 01:59:00,
2013-03-27 21:00:00,32.9,21.3,30.35,SE,146,0.0,0.0,62,0.00,,---,0.00,0.00,VWS V14.00,2013-03-28 02:00:00,
2013-03-27 21:04:00,27.3,20.1,30.36,SE,146,0.0,0.0,74,0.00,,---,0.00,0.00,VWS V14.00,2013-03-28 02:04:00,
2013-03-27 21:09:00,27.0,19.8,30.36,SE,146,0.0,0.0,74,0.00,,---,0.00,0.00,VWS V14.00,2013-03-28 02:09:00,
2013-03-27 21:14:00,26.7,19.9,30.36,SE,146,0.0,0.0,75,0.00,,---,0.00,0.00,VWS V14.00,2013-03-28 02:14:00,
2013-03-27 21:20:00,26.3,19.8,30.36,SE,146,0.0,0.0,76,0.00,,---,0.00,0.00,VWS V14.00,2013-03-28 02:20:00,
2013-03-27 21:25:00,26.1,19.9,30.36,SE,146,0.0,0.0,77,0.00,,---,0.00,0.00,VWS V14.00,2013-03-28 02:25:00,
2013-03-27 21:30:00,25.8,19.6,30.36,SE,146,0.0,0.0,77,0.00,,---,0.00,0.00,VWS V14.00,2013-03-28 02:30:00,
2013-03-27 21:35:00,25.6,20.0,30.37,SE,146,0.0,0.0,79,0.00,,---,0.00,0.00,VWS V14.00,2013-03-28 02:35:00,
2013-03-27 21:40:00,25.4,19.8,30.37,SE,146,0.0,0.0,79,0.00,,---,0.00,0.00,VWS V14.00,2013-03-28 02:40:00,
2013-03-27 21:45:00,25.2,19.6,30.37,SE,146,0.0,0.0,79,0.00,,---,0.00,0.00,VWS V14.00,2013-03-28 02:45:00,
2013-03-27 21:50:00,24.9,19.3,30.37,SE,146,0.0,0.0,79,0.00,,---,0.00,0.00,VWS V14.00,2013-03-28 02:50:00,
2013-03-27 21:55:00,24.7,19.1,30.37,SE,146,0.0,0.0,79,0.00,,---,0.00,0.00,VWS V14.00,2013-03-28 02:55:00,
2013-03-27 22:00:00,24.4,19.1,30.37,SE,146,0.0,0.0,80,0.00,,---,0.00,0.00,VWS V14.00,2013-03-28 03:00:00,
2013-03-27 22:05:00,24.2,19.2,30.37,SE,146,0.0,0.0,81,0.00,,---,0.00,0.00,VWS V14.00,2013-03-28 03:05:00,
2013-03-27 22:10:00,24.0,19.3,30.37,SE,146,0.0,0.0,82,0.00,,---,0.00,0.00,VWS V14.00,2013-03-28 03:10:00,
2013-03-27 22:15:00,23.9,19.2,30.37,SE,146,0.0,0.0,82,0.00,,---,0.00,0.00,VWS V14.00,2013-03-28 03:15:00,
2013-03-27 22:20:00,23.8,19.7,30.37,SE,146,0.0,0.0,84,0.00,,---,0.00,0.00,VWS V14.00,2013-03-28 03:20:00,
2013-03-27 22:25:00,23.8,19.7,30.37,SE,146,0.0,0.0,84,0.00,,---,0.00,0.00,VWS V14.00,2013-03-28 03:25:00,
2013-03-27 22:30:00,26.0,19.8,30.36,SE,146,0.0,0.0,77,0.00,,---,0.00,0.00,VWS V14.00,2013-03-28 03:30:00,
2013-03-27 22:31:00,23.8,19.7,30.37,SE,146,0.0,0.0,84,0.00,,---,0.00,0.00,VWS V14.00,2013-03-28 03:31:00,
2013-03-27 22:36:00,23.6,19.5,30.37,SE,146,0.0,0.0,84,0.00,,---,0.00,0.00,VWS V14.00,2013-03-28 03:36:00,
2013-03-27 22:41:00,23.5,19.1,30.38,SE,146,0.0,0.0,83,0.00,,---,0.00,0.00,VWS V14.00,2013-03-28 03:41:00,
2013-03-27 22:46:00,23.2,18.8,30.38,SE,146,0.0,0.0,83,0.00,,---,0.00,0.00,VWS V14.00,2013-03-28 03:46:00,
2013-03-27 22:51:00,23.0,18.9,30.38,SE,146,0.0,0.0,84,0.00,,---,0.00,0.00,VWS V14.00,2013-03-28 03:51:00,
2013-03-27 22:56:00,22.8,18.7,30.38,SE,146,0.0,0.0,84,0.00,,---,0.00,0.00,VWS V14.00,2013-03-28 03:56:00,
2013-03-27 23:00:00,22.7,18.6,30.38,SE,146,0.0,0.0,84,0.00,,---,0.00,0.00,VWS V14.00,2013-03-28 04:00:00,
2013-03-27 23:01:00,22.7,18.6,30.38,SE,146,0.0,0.0,84,0.00,,---,0.00,0.00,VWS V14.00,2013-03-28 04:01:00,
2013-03-27 23:06:00,22.5,18.4,30.38,SE,146,0.0,0.0,84,0.00,,---,0.00,0.00,VWS V14.00,2013-03-28 04:06:00,
2013-03-27 23:12:00,22.2,18.1,30.38,SE,146,0.0,0.0,84,0.00,,---,0.00,0.00,VWS V14.00,2013-03-28 04:12:00,
2013-03-27 23:17:00,22.1,18.3,30.38,SE,146,0.0,0.0,85,0.00,,---,0.00,0.00,VWS V14.00,2013-03-28 04:17:00,
2013-03-27 23:22:00,22.0,18.2,30.38,SE,146,0.0,0.0,85,0.00,,---,0.00,0.00,VWS V14.00,2013-03-28 04:22:00,
2013-03-27 23:27:00,21.8,18.0,30.38,SE,146,0.0,0.0,85,0.00,,---,0.00,0.00,VWS V14.00,2013-03-28 04:27:00,
2013-03-27 23:30:00,23.8,19.7,30.37,SE,146,0.0,0.0,84,0.00,,---,0.00,0.00,VWS V14.00,2013-03-28 04:30:00,
2013-03-27 23:32:00,21.7,18.2,30.37,SE,146,0.0,0.0,86,0.00,,---,0.00,0.00,VWS V14.00,2013-03-28 04:32:00,
2013-03-27 23:37:00,21.6,18.1,30.37,SE,146,0.0,0.0,86,0.00,,---,0.00,0.00,VWS V14.00,2013-03-28 04:37:00,
2013-03-27 23:42:00,21.4,17.9,30.38,SE,146,0.0,0.0,86,0.00,,---,0.00,0.00,VWS V14.00,2013-03-28 04:42:00,
2013-03-27 23:47:00,21.2,17.7,30.38,SE,146,0.0,0.0,86,0.00,,---,0.00,0.00,VWS V14.00,2013-03-28 04:47:00,
2013-03-27 23:52:00,21.1,17.8,30.38,SE,146,0.0,0.0,87,0.00,,---,0.00,0.00,VWS V14.00,2013-03-28 04:52:00,
2013-03-27 23:57:00,21.0,17.8,30.37,SE,146,0.0,0.0,87,0.00,,---,0.00,0.00,VWS V14.00,2013-03-28 04:57:00,